Weather History for Dyersburg, TN

Change the Weather History Date:

Tuesday, February 19, 2013

  Actual Average Record
Temperature  
Mean Temperature 40 °F -  
Max Temperature 46 °F 50 °F 66 °F (2004)
Min Temperature 33 °F 35 °F 12 °F (2006)
Degree Days  
Heating Degree Days 26    
Moisture  
Dew Point 21 °F    
Average Humidity 47    
Maximum Humidity 66    
Minimum Humidity 32    
Precipitation  
Precipitation 0.67 in - - ()
Sea Level Pressure  
Sea Level Pressure 30.18 in    
Wind  
Wind Speed 11 mph (WNW)    
Max Wind Speed 17 mph    
Max Gust Speed 26 mph    
Visibility 10 miles    
Events      
Averages and records for this station are not official NWS values.
T = Trace of Precipitation, MM = Missing Value Source: NWS Daily Summary

Daily Weather History Graph

Daily Weather History Graph

Search for Another Location

Airport:

Trip Planner

Search our weather history database for the weather conditions in past years. The results will help you decide how hot, cold, wet, or windy it might be!

Date:

Astronomy

Feb. 19, 2013 Rise Set
Actual Time 6:40 AM CST 5:43 PM CST
Civil Twilight 6:13 AM CST 6:09 PM CST
Nautical Twilight 5:44 AM CST 6:39 PM CST
Astronomical Twilight 5:14 AM CST 7:09 PM CST
Moon 12:20 PM CST (2/19) 2:06 AM CST (2/19)
Length of Visible Light 11h 55m
Length of Day
11h 03m
Waxing Gibbous, 67% of the Moon is Illuminated
Feb 19
Waxing Gibbous
Feb 25
Full
Mar 4
Last Quarter
Mar 11
New
Mar 19
First Quarter

Hourly Weather History & Observations

Time (CST) Temp. Windchill Dew Point Humidity Pressure Visibility Wind Dir Wind Speed Gust Speed Precip Events Conditions
12:15 AM 44.6 °F 38.4 °F 33.8 °F 66% 29.96 in 10.0 mi NW 12.7 mph 19.6 mph N/A   Mostly Cloudy
12:35 AM 44.6 °F 38.1 °F 30.2 °F 57% 29.97 in 10.0 mi NW 13.8 mph - N/A   Partly Cloudy
12:55 AM 44.6 °F 39.7 °F 30.2 °F 57% 29.98 in 10.0 mi NW 9.2 mph 21.9 mph N/A   Mostly Cloudy
1:15 AM 44.6 °F 39.2 °F 30.2 °F 57% 29.99 in 10.0 mi WNW 10.4 mph 18.4 mph N/A   Overcast
1:35 AM 44.6 °F 39.7 °F 30.2 °F 57% 30.00 in 10.0 mi WNW 9.2 mph 18.4 mph N/A   Overcast
1:55 AM 44.6 °F 37.8 °F 30.2 °F 57% 30.00 in 10.0 mi WNW 15.0 mph 19.6 mph N/A   Overcast
2:15 AM 42.8 °F 36.6 °F 30.2 °F 61% 30.01 in 10.0 mi WNW 11.5 mph 18.4 mph N/A   Overcast
2:35 AM 42.8 °F 35.1 °F 28.4 °F 57% 30.03 in 10.0 mi WNW 16.1 mph 20.7 mph N/A   Overcast
2:55 AM 41.0 °F 33.1 °F 26.6 °F 57% 30.04 in 10.0 mi WNW 15.0 mph 24.2 mph N/A   Overcast
3:15 AM 39.2 °F 31.6 °F 26.6 °F 61% 30.05 in 10.0 mi WNW 12.7 mph 18.4 mph N/A   Overcast
3:35 AM 39.2 °F 31.6 °F 24.8 °F 56% 30.05 in 10.0 mi WNW 12.7 mph 20.7 mph N/A   Overcast
3:55 AM 37.4 °F 30.3 °F 24.8 °F 60% 30.06 in 10.0 mi NW 10.4 mph - N/A   Scattered Clouds
4:15 AM 37.4 °F 30.3 °F 24.8 °F 60% 30.07 in 10.0 mi WNW 10.4 mph - N/A   Clear
4:35 AM 35.6 °F 28.6 °F 23.0 °F 60% 30.09 in 10.0 mi West 9.2 mph - N/A   Clear
4:55 AM 35.6 °F 27.5 °F 23.0 °F 60% 30.10 in 10.0 mi WNW 11.5 mph - N/A   Clear
5:15 AM 35.6 °F 28.0 °F 21.2 °F 56% 30.11 in 10.0 mi WNW 10.4 mph 19.6 mph N/A   Clear
5:55 AM 33.8 °F 27.0 °F 19.4 °F 56% 30.12 in 10.0 mi WNW 8.1 mph - N/A   Clear
6:15 AM 33.8 °F 27.7 °F 19.4 °F 56% 30.14 in 10.0 mi West 6.9 mph - N/A   Clear
6:35 AM 33.8 °F 26.4 °F 19.4 °F 56% 30.15 in 10.0 mi West 9.2 mph - N/A   Clear
6:55 AM 33.8 °F 25.8 °F 19.4 °F 56% 30.16 in 10.0 mi West 10.4 mph 16.1 mph N/A   Clear
7:15 AM 33.8 °F 27.0 °F 17.6 °F 52% 30.16 in 10.0 mi West 8.1 mph - N/A   Clear
7:35 AM 33.8 °F 26.4 °F 19.4 °F 56% 30.17 in 10.0 mi WNW 9.2 mph - N/A   Clear
7:55 AM 35.6 °F 28.0 °F 19.4 °F 52% 30.18 in 10.0 mi WNW 10.4 mph 18.4 mph N/A   Clear
8:15 AM 35.6 °F 27.5 °F 19.4 °F 52% 30.19 in 10.0 mi WNW 11.5 mph 16.1 mph N/A   Clear
8:35 AM 35.6 °F 28.0 °F 17.6 °F 48% 30.19 in 10.0 mi WNW 10.4 mph 17.3 mph N/A   Clear
8:55 AM 35.6 °F 27.1 °F 17.6 °F 48% 30.20 in 10.0 mi WNW 12.7 mph 18.4 mph N/A   Clear
9:35 AM 37.4 °F 28.2 °F 19.4 °F 48% 30.21 in 10.0 mi West 16.1 mph 21.9 mph N/A   Clear
9:55 AM 37.4 °F 29.3 °F 17.6 °F 45% 30.22 in 10.0 mi WNW 12.7 mph 17.3 mph N/A   Clear
10:15 AM 37.4 °F 28.9 °F 19.4 °F 48% 30.22 in 10.0 mi West 13.8 mph 20.7 mph N/A   Clear
10:35 AM 39.2 °F 31.2 °F 19.4 °F 45% 30.22 in 10.0 mi WNW 13.8 mph 19.6 mph N/A   Clear
10:55 AM 39.2 °F 31.2 °F 19.4 °F 45% 30.23 in 10.0 mi West 13.8 mph 19.6 mph N/A   Clear
11:15 AM 41.0 °F 33.1 °F 21.2 °F 45% 30.23 in 10.0 mi West 15.0 mph 21.9 mph N/A   Clear
11:35 AM 41.0 °F 33.1 °F 19.4 °F 42% 30.23 in 10.0 mi NW 15.0 mph 19.6 mph N/A   Clear
12:15 PM 42.8 °F 36.2 °F 21.2 °F 42% 30.23 in 10.0 mi WNW 12.7 mph 20.7 mph N/A   Clear
12:35 PM 42.8 °F 35.8 °F 21.2 °F 42% 30.23 in 10.0 mi WNW 13.8 mph 23.0 mph N/A   Clear
12:55 PM 42.8 °F 35.4 °F 23.0 °F 46% 30.22 in 10.0 mi WNW 15.0 mph 21.9 mph N/A   Clear
1:15 PM 42.8 °F 35.8 °F 21.2 °F 42% 30.22 in 10.0 mi NW 13.8 mph 23.0 mph N/A   Clear
1:35 PM 44.6 °F 37.8 °F 21.2 °F 39% 30.22 in 10.0 mi WNW 15.0 mph 26.5 mph N/A   Clear
1:55 PM 44.6 °F 38.1 °F 21.2 °F 39% 30.22 in 10.0 mi WNW 13.8 mph 24.2 mph N/A   Clear
2:15 PM 44.6 °F 38.4 °F 21.2 °F 39% 30.23 in 10.0 mi WNW 12.7 mph 19.6 mph N/A   Clear
2:35 PM 44.6 °F 37.4 °F 21.2 °F 39% 30.23 in 10.0 mi WNW 16.1 mph 23.0 mph N/A   Clear
2:55 PM 44.6 °F 38.1 °F 21.2 °F 39% 30.23 in 10.0 mi WNW 13.8 mph 19.6 mph N/A   Clear
3:15 PM 46.4 °F 40.4 °F 21.2 °F 37% 30.23 in 10.0 mi West 13.8 mph 21.9 mph N/A   Clear
3:35 PM 46.4 °F 40.1 °F 21.2 °F 37% 30.23 in 10.0 mi West 15.0 mph 23.0 mph N/A   Clear
3:55 PM 46.4 °F 39.5 °F 19.4 °F 34% 30.23 in 10.0 mi West 17.3 mph 25.3 mph N/A   Clear
4:15 PM 46.4 °F 40.1 °F 19.4 °F 34% 30.23 in 10.0 mi West 15.0 mph 21.9 mph N/A   Clear
4:35 PM 46.4 °F 41.1 °F 17.6 °F 32% 30.23 in 10.0 mi West 11.5 mph 21.9 mph N/A   Clear
5:15 PM 44.6 °F 39.2 °F 17.6 °F 34% 30.23 in 10.0 mi West 10.4 mph - N/A   Clear
6:35 PM 39.2 °F 37.0 °F 17.6 °F 42% 30.23 in 10.0 mi West 3.5 mph - N/A   Clear
6:55 PM 39.2 °F 35.9 °F 17.6 °F 42% 30.23 in 10.0 mi West 4.6 mph - N/A   Clear
7:15 PM 39.2 °F 37.0 °F 17.6 °F 42% 30.23 in 10.0 mi West 3.5 mph - N/A   Clear
7:35 PM 39.2 °F - 17.6 °F 42% 30.23 in 10.0 mi Calm Calm - N/A   Clear
7:55 PM 39.2 °F 37.0 °F 17.6 °F 42% 30.24 in 10.0 mi WNW 3.5 mph - N/A   Clear
8:15 PM 37.4 °F 34.9 °F 17.6 °F 45% 30.26 in 10.0 mi West 3.5 mph - N/A   Clear
9:15 PM 37.4 °F 32.1 °F 17.6 °F 45% 30.27 in 10.0 mi NW 6.9 mph - N/A   Clear
9:35 PM 37.4 °F 32.8 °F 15.8 °F 41% 30.27 in 10.0 mi NW 5.8 mph - N/A   Clear
9:55 PM 37.4 °F 33.8 °F 15.8 °F 41% 30.28 in 10.0 mi WNW 4.6 mph - N/A   Clear
10:15 PM 35.6 °F - 15.8 °F 44% 30.28 in 10.0 mi Calm Calm - N/A   Clear
10:35 PM 35.6 °F 31.7 °F 14.0 °F 41% 30.28 in 10.0 mi NW 4.6 mph - N/A   Clear
10:55 PM 35.6 °F 31.7 °F 12.2 °F 38% 30.29 in 10.0 mi NW 4.6 mph - N/A   Clear
11:15 PM 33.8 °F 26.4 °F 12.2 °F 41% 30.30 in 10.0 mi North 9.2 mph - N/A   Clear
11:35 PM 33.8 °F 26.4 °F 12.2 °F 41% 30.30 in 10.0 mi North 9.2 mph - N/A   Clear
11:55 PM 33.8 °F 26.4 °F 12.2 °F 41% 30.30 in 10.0 mi North 9.2 mph - N/A   Clear